sensor_id;sensor_type;location;lat;lon;timestamp;pressure;altitude;pressure_sealevel;temperature;humidity
32197;BME280;18697;42.770;23.400;2022-08-11T00:01:46;95742.59;;;24.08;60.21
32197;BME280;18697;42.770;23.400;2022-08-11T00:04:13;95746.50;;;24.18;59.95
32197;BME280;18697;42.770;23.400;2022-08-11T00:06:39;95744.28;;;24.24;59.47
32197;BME280;18697;42.770;23.400;2022-08-11T00:09:15;95739.59;;;24.27;59.15
32197;BME280;18697;42.770;23.400;2022-08-11T00:11:49;95744.94;;;24.30;59.43
32197;BME280;18697;42.770;23.400;2022-08-11T00:14:21;95748.75;;;24.33;59.31
32197;BME280;18697;42.770;23.400;2022-08-11T00:19:21;95741.81;;;24.41;59.05
32197;BME280;18697;42.770;23.400;2022-08-11T00:21:47;95746.75;;;24.41;59.07
32197;BME280;18697;42.770;23.400;2022-08-11T00:24:14;95742.25;;;24.45;59.28
32197;BME280;18697;42.770;23.400;2022-08-11T00:26:46;95729.72;;;24.41;59.04
32197;BME280;18697;42.770;23.400;2022-08-11T00:29:12;95734.47;;;24.25;59.74
32197;BME280;18697;42.770;23.400;2022-08-11T00:31:43;95735.41;;;24.07;59.79
32197;BME280;18697;42.770;23.400;2022-08-11T00:34:10;95729.66;;;23.99;60.28
32197;BME280;18697;42.770;23.400;2022-08-11T00:39:22;95746.16;;;23.87;60.63
32197;BME280;18697;42.770;23.400;2022-08-11T00:44:41;95741.47;;;23.43;61.44
32197;BME280;18697;42.770;23.400;2022-08-11T00:50:21;95743.44;;;23.61;61.58
32197;BME280;18697;42.770;23.400;2022-08-11T00:53:22;95743.09;;;23.65;60.83
32197;BME280;18697;42.770;23.400;2022-08-11T01:03:53;95737.41;;;23.65;60.72
32197;BME280;18697;42.770;23.400;2022-08-11T01:32:17;95721.84;;;23.58;60.15
32197;BME280;18697;42.770;23.400;2022-08-11T01:44:08;95726.38;;;23.74;59.57
32197;BME280;18697;42.770;23.400;2022-08-11T01:50:09;95718.56;;;23.88;58.92
32197;BME280;18697;42.770;23.400;2022-08-11T01:55:26;95727.78;;;24.02;58.36
32197;BME280;18697;42.770;23.400;2022-08-11T01:58:06;95728.56;;;24.02;58.08
32197;BME280;18697;42.770;23.400;2022-08-11T02:00:44;95726.75;;;24.12;57.70
32197;BME280;18697;42.770;23.400;2022-08-11T02:03:22;95729.19;;;24.08;57.91
32197;BME280;18697;42.770;23.400;2022-08-11T02:06:04;95721.84;;;24.13;57.62
32197;BME280;18697;42.770;23.400;2022-08-11T02:09:07;95725.03;;;24.09;57.80
32197;BME280;18697;42.770;23.400;2022-08-11T02:11:36;95729.72;;;24.07;57.87
32197;BME280;18697;42.770;23.400;2022-08-11T02:23:16;95721.84;;;24.13;57.45
32197;BME280;18697;42.770;23.400;2022-08-11T02:29:00;95725.00;;;23.88;57.89
32197;BME280;18697;42.770;23.400;2022-08-11T02:36:59;95721.47;;;23.96;57.74
32197;BME280;18697;42.770;23.400;2022-08-11T02:39:38;95724.66;;;23.92;57.86
32197;BME280;18697;42.770;23.400;2022-08-11T02:42:48;95720.50;;;23.93;57.61
32197;BME280;18697;42.770;23.400;2022-08-11T02:45:33;95723.56;;;23.95;57.63
32197;BME280;18697;42.770;23.400;2022-08-11T02:56:18;95721.53;;;23.82;57.85
32197;BME280;18697;42.770;23.400;2022-08-11T02:59:15;95721.25;;;23.73;58.20
32197;BME280;18697;42.770;23.400;2022-08-11T03:04:48;95729.06;;;23.80;57.61
32197;BME280;18697;42.770;23.400;2022-08-11T03:10:21;95727.63;;;23.86;57.79
32197;BME280;18697;42.770;23.400;2022-08-11T03:13:03;95738.97;;;23.86;57.43
32197;BME280;18697;42.770;23.400;2022-08-11T03:19:02;95733.03;;;23.98;57.07
32197;BME280;18697;42.770;23.400;2022-08-11T03:21:41;95730.97;;;23.98;57.25
32197;BME280;18697;42.770;23.400;2022-08-11T03:24:24;95724.59;;;23.84;57.00
32197;BME280;18697;42.770;23.400;2022-08-11T03:27:26;95736.69;;;23.38;58.35
32197;BME280;18697;42.770;23.400;2022-08-11T03:33:27;95727.56;;;23.05;59.49
32197;BME280;18697;42.770;23.400;2022-08-11T03:36:50;95730.38;;;23.18;59.36
32197;BME280;18697;42.770;23.400;2022-08-11T03:42:42;95740.94;;;23.05;58.62
32197;BME280;18697;42.770;23.400;2022-08-11T04:01:57;95740.84;;;20.10;69.31
32197;BME280;18697;42.770;23.400;2022-08-11T04:19:07;95752.09;;;22.57;60.98
32197;BME280;18697;42.770;23.400;2022-08-11T04:24:49;95741.19;;;22.93;59.48
32197;BME280;18697;42.770;23.400;2022-08-11T04:27:59;95748.91;;;22.80;59.94
32197;BME280;18697;42.770;23.400;2022-08-11T04:31:01;95744.88;;;22.88;59.73
32197;BME280;18697;42.770;23.400;2022-08-11T04:34:04;95755.91;;;22.92;59.47
32197;BME280;18697;42.770;23.400;2022-08-11T04:52:15;95759.91;;;22.83;60.15
32197;BME280;18697;42.770;23.400;2022-08-11T05:12:44;95745.03;;;23.70;58.42
32197;BME280;18697;42.770;23.400;2022-08-11T05:15:18;95753.13;;;23.66;58.47
32197;BME280;18697;42.770;23.400;2022-08-11T05:18:19;95752.34;;;23.52;59.05
32197;BME280;18697;42.770;23.400;2022-08-11T05:21:08;95749.53;;;23.52;58.99
32197;BME280;18697;42.770;23.400;2022-08-11T05:23:57;95749.84;;;23.48;59.27
32197;BME280;18697;42.770;23.400;2022-08-11T05:26:47;95748.66;;;23.44;59.54
32197;BME280;18697;42.770;23.400;2022-08-11T05:29:39;95751.16;;;23.47;59.66
32197;BME280;18697;42.770;23.400;2022-08-11T05:32:29;95753.13;;;23.52;60.00
32197;BME280;18697;42.770;23.400;2022-08-11T05:35:22;95747.03;;;23.48;59.85
32197;BME280;18697;42.770;23.400;2022-08-11T05:37:48;95749.63;;;23.46;59.90
32197;BME280;18697;42.770;23.400;2022-08-11T05:40:33;95737.16;;;22.89;63.35
32197;BME280;18697;42.770;23.400;2022-08-11T05:43:17;95749.59;;;21.71;67.63
32197;BME280;18697;42.770;23.400;2022-08-11T05:46:04;95747.22;;;21.75;67.84
32197;BME280;18697;42.770;23.400;2022-08-11T05:48:50;95748.63;;;21.69;67.97
32197;BME280;18697;42.770;23.400;2022-08-11T05:51:40;95747.41;;;22.02;66.39
32197;BME280;18697;42.770;23.400;2022-08-11T05:54:26;95749.19;;;22.18;65.82
32197;BME280;18697;42.770;23.400;2022-08-11T05:57:28;95747.19;;;22.45;65.35
32197;BME280;18697;42.770;23.400;2022-08-11T05:59:59;95744.16;;;22.56;63.99
32197;BME280;18697;42.770;23.400;2022-08-11T06:02:26;95748.75;;;22.72;64.06
32197;BME280;18697;42.770;23.400;2022-08-11T06:04:56;95742.72;;;22.94;63.42
32197;BME280;18697;42.770;23.400;2022-08-11T06:07:28;95739.41;;;23.04;63.20
32197;BME280;18697;42.770;23.400;2022-08-11T06:09:54;95744.09;;;23.27;62.65
32197;BME280;18697;42.770;23.400;2022-08-11T06:12:24;95740.59;;;23.48;61.27
32197;BME280;18697;42.770;23.400;2022-08-11T06:14:54;95744.19;;;23.62;61.60
32197;BME280;18697;42.770;23.400;2022-08-11T06:17:27;95740.19;;;23.78;60.52
32197;BME280;18697;42.770;23.400;2022-08-11T06:19:59;95733.53;;;23.54;62.77
32197;BME280;18697;42.770;23.400;2022-08-11T06:22:26;95733.91;;;23.72;62.47
32197;BME280;18697;42.770;23.400;2022-08-11T06:25:00;95723.28;;;23.85;62.23
32197;BME280;18697;42.770;23.400;2022-08-11T06:27:36;95732.16;;;24.03;60.84
32197;BME280;18697;42.770;23.400;2022-08-11T06:30:05;95733.53;;;24.09;61.28
32197;BME280;18697;42.770;23.400;2022-08-11T06:32:42;95732.94;;;24.24;60.29
32197;BME280;18697;42.770;23.400;2022-08-11T06:35:28;95735.31;;;24.33;60.11
32197;BME280;18697;42.770;23.400;2022-08-11T06:38:12;95734.59;;;24.61;60.08
32197;BME280;18697;42.770;23.400;2022-08-11T06:40:57;95729.28;;;24.37;59.90
32197;BME280;18697;42.770;23.400;2022-08-11T06:43:50;95730.59;;;23.81;61.66
32197;BME280;18697;42.770;23.400;2022-08-11T06:46:25;95732.28;;;24.31;62.26
32197;BME280;18697;42.770;23.400;2022-08-11T06:48:53;95739.22;;;24.09;61.07
32197;BME280;18697;42.770;23.400;2022-08-11T06:51:19;95737.84;;;24.23;60.76
32197;BME280;18697;42.770;23.400;2022-08-11T06:53:53;95740.06;;;24.59;60.79
32197;BME280;18697;42.770;23.400;2022-08-11T06:56:25;95733.84;;;24.89;59.60
32197;BME280;18697;42.770;23.400;2022-08-11T06:59:11;95737.88;;;25.22;58.79
32197;BME280;18697;42.770;23.400;2022-08-11T07:04:31;95733.22;;;25.40;60.12
32197;BME280;18697;42.770;23.400;2022-08-11T07:07:23;95735.75;;;25.51;57.90
32197;BME280;18697;42.770;23.400;2022-08-11T07:13:42;95734.78;;;25.12;57.45
32197;BME280;18697;42.770;23.400;2022-08-11T07:23:12;95734.44;;;24.67;60.83
32197;BME280;18697;42.770;23.400;2022-08-11T07:25:59;95725.91;;;25.16;58.98
32197;BME280;18697;42.770;23.400;2022-08-11T07:28:46;95723.63;;;25.58;58.45
32197;BME280;18697;42.770;23.400;2022-08-11T07:31:36;95724.56;;;26.04;57.71
32197;BME280;18697;42.770;23.400;2022-08-11T07:34:33;95733.97;;;25.76;57.73
32197;BME280;18697;42.770;23.400;2022-08-11T07:37:03;95720.94;;;25.89;55.52
32197;BME280;18697;42.770;23.400;2022-08-11T07:39:35;95718.13;;;26.19;53.99
32197;BME280;18697;42.770;23.400;2022-08-11T07:42:06;95730.81;;;26.10;53.93
32197;BME280;18697;42.770;23.400;2022-08-11T07:44:33;95723.28;;;26.28;52.34
32197;BME280;18697;42.770;23.400;2022-08-11T07:47:19;95714.28;;;26.01;55.09
32197;BME280;18697;42.770;23.400;2022-08-11T07:50:05;95720.63;;;25.64;55.27
32197;BME280;18697;42.770;23.400;2022-08-11T07:52:51;95720.13;;;25.37;56.24
32197;BME280;18697;42.770;23.400;2022-08-11T07:55:17;95713.94;;;25.53;55.56
32197;BME280;18697;42.770;23.400;2022-08-11T07:57:45;95721.00;;;25.60;55.08
32197;BME280;18697;42.770;23.400;2022-08-11T08:00:38;95713.38;;;24.83;56.44
32197;BME280;18697;42.770;23.400;2022-08-11T08:03:23;95706.06;;;24.95;56.37
32197;BME280;18697;42.770;23.400;2022-08-11T08:06:08;95709.00;;;24.82;56.84
32197;BME280;18697;42.770;23.400;2022-08-11T08:08:54;95707.03;;;25.34;57.54
32197;BME280;18697;42.770;23.400;2022-08-11T08:11:38;95705.88;;;25.65;55.51
32197;BME280;18697;42.770;23.400;2022-08-11T08:14:22;95707.47;;;25.89;54.52
32197;BME280;18697;42.770;23.400;2022-08-11T08:17:07;95704.41;;;25.79;54.27
32197;BME280;18697;42.770;23.400;2022-08-11T08:19:52;95704.00;;;25.75;54.96
32197;BME280;18697;42.770;23.400;2022-08-11T08:22:19;95706.34;;;26.00;55.04
32197;BME280;18697;42.770;23.400;2022-08-11T08:24:46;95702.25;;;25.65;54.75
32197;BME280;18697;42.770;23.400;2022-08-11T08:27:13;95693.06;;;26.10;54.98
32197;BME280;18697;42.770;23.400;2022-08-11T08:29:40;95690.84;;;26.39;54.78
32197;BME280;18697;42.770;23.400;2022-08-11T08:32:27;95690.28;;;26.71;53.01
32197;BME280;18697;42.770;23.400;2022-08-11T08:34:54;95693.09;;;27.01;52.05
32197;BME280;18697;42.770;23.400;2022-08-11T08:37:22;95688.66;;;27.23;51.73
32197;BME280;18697;42.770;23.400;2022-08-11T08:39:48;95689.47;;;26.78;51.10
32197;BME280;18697;42.770;23.400;2022-08-11T08:42:24;95695.16;;;26.93;51.98
32197;BME280;18697;42.770;23.400;2022-08-11T08:44:56;95693.09;;;27.01;51.29
32197;BME280;18697;42.770;23.400;2022-08-11T08:47:30;95691.59;;;26.32;50.85
32197;BME280;18697;42.770;23.400;2022-08-11T08:50:03;95689.13;;;26.36;52.90
32197;BME280;18697;42.770;23.400;2022-08-11T08:52:33;95681.88;;;26.88;53.75
32197;BME280;18697;42.770;23.400;2022-08-11T08:55:04;95693.47;;;26.90;51.51
32197;BME280;18697;42.770;23.400;2022-08-11T08:57:32;95691.06;;;27.42;51.59
32197;BME280;18697;42.770;23.400;2022-08-11T09:00:00;95682.25;;;27.63;51.17
32197;BME280;18697;42.770;23.400;2022-08-11T09:02:26;95687.44;;;27.89;48.96
32197;BME280;18697;42.770;23.400;2022-08-11T09:04:53;95679.31;;;28.10;49.41
32197;BME280;18697;42.770;23.400;2022-08-11T09:07:21;95678.09;;;28.21;48.72
32197;BME280;18697;42.770;23.400;2022-08-11T09:09:55;95682.00;;;28.08;49.98
32197;BME280;18697;42.770;23.400;2022-08-11T09:12:26;95687.31;;;27.79;48.31
32197;BME280;18697;42.770;23.400;2022-08-11T09:14:52;95682.94;;;28.11;49.18
32197;BME280;18697;42.770;23.400;2022-08-11T09:20:16;95684.00;;;27.91;48.93
32197;BME280;18697;42.770;23.400;2022-08-11T09:22:43;95674.50;;;28.21;50.03
32197;BME280;18697;42.770;23.400;2022-08-11T09:25:30;95673.56;;;27.45;49.07
32197;BME280;18697;42.770;23.400;2022-08-11T09:28:29;95666.28;;;28.25;49.59
32197;BME280;18697;42.770;23.400;2022-08-11T09:30:56;95674.78;;;28.57;47.21
32197;BME280;18697;42.770;23.400;2022-08-11T09:33:26;95674.59;;;28.80;47.56
32197;BME280;18697;42.770;23.400;2022-08-11T09:35:53;95667.06;;;29.09;46.40
32197;BME280;18697;42.770;23.400;2022-08-11T09:38:22;95669.94;;;28.92;44.63
32197;BME280;18697;42.770;23.400;2022-08-11T09:41:17;95672.09;;;29.01;45.54
32197;BME280;18697;42.770;23.400;2022-08-11T09:43:45;95665.91;;;28.95;45.68
32197;BME280;18697;42.770;23.400;2022-08-11T09:46:29;95669.56;;;29.05;48.50
32197;BME280;18697;42.770;23.400;2022-08-11T09:48:59;95665.97;;;29.39;46.33
32197;BME280;18697;42.770;23.400;2022-08-11T09:51:30;95663.69;;;29.55;44.62
32197;BME280;18697;42.770;23.400;2022-08-11T09:53:58;95654.59;;;29.66;45.10
32197;BME280;18697;42.770;23.400;2022-08-11T09:56:25;95653.50;;;29.89;45.03
32197;BME280;18697;42.770;23.400;2022-08-11T09:59:11;95651.88;;;29.95;42.04
32197;BME280;18697;42.770;23.400;2022-08-11T10:01:44;95646.13;;;29.41;42.69
32197;BME280;18697;42.770;23.400;2022-08-11T10:04:13;95637.63;;;29.17;42.94
32197;BME280;18697;42.770;23.400;2022-08-11T10:06:40;95637.13;;;29.45;43.49
32197;BME280;18697;42.770;23.400;2022-08-11T10:09:25;95631.22;;;29.26;43.89
32197;BME280;18697;42.770;23.400;2022-08-11T10:11:59;95630.53;;;28.66;44.47
32197;BME280;18697;42.770;23.400;2022-08-11T10:14:29;95626.78;;;28.98;45.02
32197;BME280;18697;42.770;23.400;2022-08-11T10:17:17;95626.00;;;29.49;44.70
32197;BME280;18697;42.770;23.400;2022-08-11T10:19:46;95617.44;;;29.15;43.99
32197;BME280;18697;42.770;23.400;2022-08-11T10:22:13;95620.13;;;29.30;43.35
32197;BME280;18697;42.770;23.400;2022-08-11T10:24:59;95621.72;;;29.06;44.26
32197;BME280;18697;42.770;23.400;2022-08-11T10:27:44;95621.31;;;29.44;42.77
32197;BME280;18697;42.770;23.400;2022-08-11T10:30:24;95621.84;;;29.87;43.91
32197;BME280;18697;42.770;23.400;2022-08-11T10:33:10;95623.03;;;29.84;43.35
32197;BME280;18697;42.770;23.400;2022-08-11T10:35:55;95626.25;;;29.26;42.67
32197;BME280;18697;42.770;23.400;2022-08-11T10:38:21;95625.84;;;29.13;44.97
32197;BME280;18697;42.770;23.400;2022-08-11T10:40:47;95619.34;;;29.29;44.45
32197;BME280;18697;42.770;23.400;2022-08-11T10:43:35;95627.78;;;29.71;44.27
32197;BME280;18697;42.770;23.400;2022-08-11T10:46:07;95622.34;;;29.93;43.08
32197;BME280;18697;42.770;23.400;2022-08-11T10:48:52;95616.25;;;29.52;42.99
32197;BME280;18697;42.770;23.400;2022-08-11T10:51:19;95607.75;;;29.27;42.35
32197;BME280;18697;42.770;23.400;2022-08-11T10:53:47;95603.25;;;29.68;42.22
32197;BME280;18697;42.770;23.400;2022-08-11T10:56:35;95593.88;;;29.95;43.99
32197;BME280;18697;42.770;23.400;2022-08-11T10:59:26;95600.25;;;30.03;41.22
32197;BME280;18697;42.770;23.400;2022-08-11T11:01:52;95617.41;;;29.76;41.73
32197;BME280;18697;42.770;23.400;2022-08-11T11:04:23;95610.03;;;29.46;40.84
32197;BME280;18697;42.770;23.400;2022-08-11T11:07:07;95603.13;;;28.21;41.54
32197;BME280;18697;42.770;23.400;2022-08-11T11:09:49;95600.09;;;27.61;43.20
32197;BME280;18697;42.770;23.400;2022-08-11T11:12:23;95605.41;;;27.25;43.70
32197;BME280;18697;42.770;23.400;2022-08-11T11:15:08;95604.16;;;26.95;46.29
32197;BME280;18697;42.770;23.400;2022-08-11T11:18:00;95619.41;;;26.75;50.64
32197;BME280;18697;42.770;23.400;2022-08-11T11:22:58;95607.16;;;26.34;55.93
32197;BME280;18697;42.770;23.400;2022-08-11T11:28:13;95597.25;;;26.28;57.71
32197;BME280;18697;42.770;23.400;2022-08-11T11:30:55;95604.09;;;26.32;55.28
32197;BME280;18697;42.770;23.400;2022-08-11T11:36:47;95621.91;;;26.17;58.73
32197;BME280;18697;42.770;23.400;2022-08-11T11:39:16;95617.38;;;26.22;60.73
32197;BME280;18697;42.770;23.400;2022-08-11T11:41:43;95610.34;;;26.15;58.12
32197;BME280;18697;42.770;23.400;2022-08-11T11:44:10;95606.19;;;25.94;57.49
32197;BME280;18697;42.770;23.400;2022-08-11T11:46:37;95607.09;;;25.66;58.18
32197;BME280;18697;42.770;23.400;2022-08-11T11:49:03;95608.38;;;25.57;60.16
32197;BME280;18697;42.770;23.400;2022-08-11T11:51:32;95597.06;;;25.88;60.50
32197;BME280;18697;42.770;23.400;2022-08-11T11:53:58;95598.97;;;26.15;60.81
32197;BME280;18697;42.770;23.400;2022-08-11T11:56:27;95600.88;;;26.43;52.48
32197;BME280;18697;42.770;23.400;2022-08-11T11:58:54;95615.09;;;26.59;54.89
32197;BME280;18697;42.770;23.400;2022-08-11T12:01:38;95618.34;;;26.47;51.07
32197;BME280;18697;42.770;23.400;2022-08-11T12:04:05;95610.38;;;26.38;52.45
32197;BME280;18697;42.770;23.400;2022-08-11T12:06:31;95601.44;;;26.34;52.28
32197;BME280;18697;42.770;23.400;2022-08-11T12:08:58;95599.34;;;26.27;53.81
32197;BME280;18697;42.770;23.400;2022-08-11T12:11:25;95606.94;;;26.17;54.20
32197;BME280;18697;42.770;23.400;2022-08-11T12:14:11;95598.19;;;26.07;53.32
32197;BME280;18697;42.770;23.400;2022-08-11T12:16:39;95591.78;;;25.99;53.45
32197;BME280;18697;42.770;23.400;2022-08-11T12:19:07;95602.56;;;26.01;54.09
32197;BME280;18697;42.770;23.400;2022-08-11T12:21:36;95601.63;;;25.91;53.24
32197;BME280;18697;42.770;23.400;2022-08-11T12:24:03;95601.25;;;25.86;54.33
32197;BME280;18697;42.770;23.400;2022-08-11T12:26:47;95615.25;;;25.69;58.39
32197;BME280;18697;42.770;23.400;2022-08-11T12:29:14;95628.53;;;25.67;63.48
32197;BME280;18697;42.770;23.400;2022-08-11T12:31:41;95624.16;;;25.66;64.51
32197;BME280;18697;42.770;23.400;2022-08-11T12:34:11;95631.03;;;25.34;62.66
32197;BME280;18697;42.770;23.400;2022-08-11T12:36:58;95632.56;;;25.35;64.24
32197;BME280;18697;42.770;23.400;2022-08-11T12:39:29;95641.66;;;25.34;66.11
32197;BME280;18697;42.770;23.400;2022-08-11T12:42:17;95635.81;;;25.39;65.26
32197;BME280;18697;42.770;23.400;2022-08-11T12:45:07;95630.69;;;25.38;65.37
32197;BME280;18697;42.770;23.400;2022-08-11T12:47:52;95632.13;;;25.16;66.08
32197;BME280;18697;42.770;23.400;2022-08-11T12:50:41;95633.03;;;24.75;65.79
32197;BME280;18697;42.770;23.400;2022-08-11T12:53:30;95640.81;;;24.46;68.28
32197;BME280;18697;42.770;23.400;2022-08-11T12:56:02;95636.94;;;24.15;69.64
32197;BME280;18697;42.770;23.400;2022-08-11T12:58:48;95637.00;;;24.02;69.68
32197;BME280;18697;42.770;23.400;2022-08-11T13:01:15;95632.38;;;24.12;72.91
32197;BME280;18697;42.770;23.400;2022-08-11T13:04:00;95617.44;;;24.11;68.75
32197;BME280;18697;42.770;23.400;2022-08-11T13:06:45;95613.47;;;24.14;68.50
32197;BME280;18697;42.770;23.400;2022-08-11T13:09:11;95607.94;;;24.09;69.75
32197;BME280;18697;42.770;23.400;2022-08-11T13:11:38;95611.81;;;24.19;68.16
32197;BME280;18697;42.770;23.400;2022-08-11T13:14:24;95602.53;;;24.18;63.86
32197;BME280;18697;42.770;23.400;2022-08-11T13:16:50;95607.75;;;24.28;65.74
32197;BME280;18697;42.770;23.400;2022-08-11T13:19:34;95608.06;;;24.45;62.73
32197;BME280;18697;42.770;23.400;2022-08-11T13:22:00;95594.53;;;24.66;60.26
32197;BME280;18697;42.770;23.400;2022-08-11T13:24:29;95580.38;;;25.02;60.77
32197;BME280;18697;42.770;23.400;2022-08-11T13:26:58;95579.13;;;25.41;60.26
32197;BME280;18697;42.770;23.400;2022-08-11T13:29:25;95568.03;;;25.74;58.55
32197;BME280;18697;42.770;23.400;2022-08-11T13:31:53;95570.88;;;26.04;56.83
32197;BME280;18697;42.770;23.400;2022-08-11T13:34:22;95568.97;;;26.30;56.60
32197;BME280;18697;42.770;23.400;2022-08-11T13:36:53;95567.63;;;26.54;55.09
32197;BME280;18697;42.770;23.400;2022-08-11T13:39:21;95565.72;;;26.56;54.66
32197;BME280;18697;42.770;23.400;2022-08-11T13:41:48;95565.88;;;26.73;57.17
32197;BME280;18697;42.770;23.400;2022-08-11T13:44:16;95558.78;;;26.82;55.92
32197;BME280;18697;42.770;23.400;2022-08-11T13:46:42;95557.09;;;26.79;54.56
32197;BME280;18697;42.770;23.400;2022-08-11T13:49:09;95548.81;;;26.66;54.74
32197;BME280;18697;42.770;23.400;2022-08-11T13:51:38;95548.56;;;26.79;55.70
32197;BME280;18697;42.770;23.400;2022-08-11T13:54:43;95546.47;;;26.79;56.27
32197;BME280;18697;42.770;23.400;2022-08-11T13:57:11;95545.47;;;26.92;56.68
32197;BME280;18697;42.770;23.400;2022-08-11T13:59:39;95538.06;;;26.97;56.72
32197;BME280;18697;42.770;23.400;2022-08-11T14:02:15;95546.47;;;27.27;55.53
32197;BME280;18697;42.770;23.400;2022-08-11T14:04:48;95536.00;;;27.30;53.85
32197;BME280;18697;42.770;23.400;2022-08-11T14:07:19;95542.06;;;27.34;54.64
32197;BME280;18697;42.770;23.400;2022-08-11T14:09:47;95538.78;;;27.45;53.69
32197;BME280;18697;42.770;23.400;2022-08-11T14:12:20;95538.81;;;27.37;53.45
32197;BME280;18697;42.770;23.400;2022-08-11T14:15:11;95532.63;;;27.24;53.53
32197;BME280;18697;42.770;23.400;2022-08-11T14:17:39;95527.34;;;27.12;51.85
32197;BME280;18697;42.770;23.400;2022-08-11T14:20:07;95534.56;;;27.13;52.14
32197;BME280;18697;42.770;23.400;2022-08-11T14:22:35;95534.13;;;27.25;52.82
32197;BME280;18697;42.770;23.400;2022-08-11T14:25:04;95529.78;;;27.24;51.43
32197;BME280;18697;42.770;23.400;2022-08-11T14:27:30;95543.72;;;27.04;50.85
32197;BME280;18697;42.770;23.400;2022-08-11T14:29:57;95539.94;;;26.94;49.46
32197;BME280;18697;42.770;23.400;2022-08-11T14:32:23;95526.66;;;26.97;48.20
32197;BME280;18697;42.770;23.400;2022-08-11T14:34:50;95537.34;;;26.81;48.44
32197;BME280;18697;42.770;23.400;2022-08-11T14:37:20;95538.28;;;26.83;49.78
32197;BME280;18697;42.770;23.400;2022-08-11T14:39:55;95545.69;;;26.87;47.93
32197;BME280;18697;42.770;23.400;2022-08-11T14:42:22;95532.78;;;26.78;48.96
32197;BME280;18697;42.770;23.400;2022-08-11T14:45:15;95546.16;;;26.60;47.99
32197;BME280;18697;42.770;23.400;2022-08-11T14:48:01;95541.06;;;26.51;49.37
32197;BME280;18697;42.770;23.400;2022-08-11T14:50:30;95535.75;;;26.55;50.59
32197;BME280;18697;42.770;23.400;2022-08-11T14:52:58;95535.53;;;26.61;48.46
32197;BME280;18697;42.770;23.400;2022-08-11T14:55:27;95538.94;;;26.59;48.06
32197;BME280;18697;42.770;23.400;2022-08-11T14:58:17;95540.25;;;26.66;47.85
32197;BME280;18697;42.770;23.400;2022-08-11T15:00:44;95535.34;;;26.59;46.65
32197;BME280;18697;42.770;23.400;2022-08-11T15:03:12;95550.56;;;26.54;47.52
32197;BME280;18697;42.770;23.400;2022-08-11T15:05:51;95541.09;;;26.36;48.16
32197;BME280;18697;42.770;23.400;2022-08-11T15:08:18;95529.13;;;26.22;48.35
32197;BME280;18697;42.770;23.400;2022-08-11T15:10:45;95534.25;;;26.16;47.59
32197;BME280;18697;42.770;23.400;2022-08-11T15:13:15;95531.84;;;25.97;48.49
32197;BME280;18697;42.770;23.400;2022-08-11T15:15:43;95528.81;;;25.95;48.71
32197;BME280;18697;42.770;23.400;2022-08-11T15:18:28;95533.53;;;25.93;48.62
32197;BME280;18697;42.770;23.400;2022-08-11T15:20:54;95526.53;;;25.78;47.57
32197;BME280;18697;42.770;23.400;2022-08-11T15:23:39;95531.25;;;25.83;48.73
32197;BME280;18697;42.770;23.400;2022-08-11T15:26:39;95530.50;;;25.91;48.63
32197;BME280;18697;42.770;23.400;2022-08-11T15:29:28;95533.91;;;25.89;48.23
32197;BME280;18697;42.770;23.400;2022-08-11T15:32:14;95529.19;;;25.92;48.11
32197;BME280;18697;42.770;23.400;2022-08-11T15:34:54;95530.69;;;25.93;48.47
32197;BME280;18697;42.770;23.400;2022-08-11T15:37:42;95529.19;;;25.92;49.02
32197;BME280;18697;42.770;23.400;2022-08-11T15:40:17;95528.59;;;25.93;48.42
32197;BME280;18697;42.770;23.400;2022-08-11T15:43:19;95529.75;;;25.90;47.58
32197;BME280;18697;42.770;23.400;2022-08-11T15:48:55;95521.03;;;25.96;47.16
32197;BME280;18697;42.770;23.400;2022-08-11T15:51:31;95525.94;;;25.95;47.21
32197;BME280;18697;42.770;23.400;2022-08-11T15:53:58;95526.72;;;25.96;47.87
32197;BME280;18697;42.770;23.400;2022-08-11T15:56:30;95535.06;;;25.94;47.01
32197;BME280;18697;42.770;23.400;2022-08-11T15:58:57;95531.06;;;25.97;46.92
32197;BME280;18697;42.770;23.400;2022-08-11T16:01:44;95534.09;;;25.91;47.07
32197;BME280;18697;42.770;23.400;2022-08-11T16:04:30;95528.59;;;25.93;46.36
32197;BME280;18697;42.770;23.400;2022-08-11T16:07:00;95534.09;;;25.91;47.39
32197;BME280;18697;42.770;23.400;2022-08-11T16:09:32;95531.66;;;25.88;47.19
32197;BME280;18697;42.770;23.400;2022-08-11T16:12:02;95530.50;;;25.75;46.72
32197;BME280;18697;42.770;23.400;2022-08-11T16:14:32;95543.22;;;25.74;47.23
32197;BME280;18697;42.770;23.400;2022-08-11T16:17:18;95538.28;;;25.67;46.50
32197;BME280;18697;42.770;23.400;2022-08-11T16:19:47;95539.59;;;25.66;46.68
32197;BME280;18697;42.770;23.400;2022-08-11T16:22:20;95538.63;;;25.64;46.88
32197;BME280;18697;42.770;23.400;2022-08-11T16:24:53;95541.06;;;25.60;47.66
32197;BME280;18697;42.770;23.400;2022-08-11T16:27:19;95543.53;;;25.55;47.76
32197;BME280;18697;42.770;23.400;2022-08-11T16:29:46;95530.88;;;25.64;47.84
32197;BME280;18697;42.770;23.400;2022-08-11T16:32:19;95536.56;;;25.64;48.00
32197;BME280;18697;42.770;23.400;2022-08-11T16:34:57;95542.44;;;25.66;48.57
32197;BME280;18697;42.770;23.400;2022-08-11T16:37:43;95545.47;;;25.76;47.22
32197;BME280;18697;42.770;23.400;2022-08-11T16:40:29;95544.72;;;25.75;47.09
32197;BME280;18697;42.770;23.400;2022-08-11T16:42:56;95538.28;;;25.75;47.47
32197;BME280;18697;42.770;23.400;2022-08-11T16:45:43;95544.72;;;25.75;46.95
32197;BME280;18697;42.770;23.400;2022-08-11T16:48:31;95546.63;;;25.80;48.67
32197;BME280;18697;42.770;23.400;2022-08-11T16:50:58;95543.41;;;25.84;47.59
32197;BME280;18697;42.770;23.400;2022-08-11T16:53:27;95538.28;;;25.90;48.90
32197;BME280;18697;42.770;23.400;2022-08-11T16:55:53;95537.72;;;25.99;47.11